createdAt,value
2018-05-07T00:00:14.975Z,100850.48
2018-05-07T00:02:44.120Z,100852.38
2018-05-07T00:05:13.298Z,100852.22
2018-05-07T00:07:43.373Z,100847.30
2018-05-07T00:10:13.344Z,100845.07
2018-05-07T00:12:45.121Z,100842.94
2018-05-07T00:15:15.058Z,100839.88
2018-05-07T00:17:45.888Z,100839.72
2018-05-07T00:20:15.338Z,100837.66
2018-05-07T00:22:45.749Z,100835.20
2018-05-07T00:25:14.897Z,100831.27
2018-05-07T00:27:44.109Z,100833.72
2018-05-07T00:30:13.337Z,100830.14
2018-05-07T00:32:42.486Z,100831.97
2018-05-07T00:35:12.471Z,100830.23
2018-05-07T00:37:41.643Z,100831.06
2018-05-07T00:40:10.826Z,100834.00
2018-05-07T00:42:40.808Z,100833.61
2018-05-07T00:45:09.984Z,100834.41
2018-05-07T00:47:39.162Z,100836.97
2018-05-07T00:50:08.703Z,100833.27
2018-05-07T00:52:37.879Z,100828.20
2018-05-07T00:55:21.647Z,100828.69
2018-05-07T00:57:50.807Z,100838.68
2018-05-07T01:00:19.966Z,100840.27
2018-05-07T01:02:50.870Z,100836.91
2018-05-07T01:05:20.068Z,100841.41
2018-05-07T01:07:50.022Z,100848.95
2018-05-07T01:10:20.170Z,100845.15
2018-05-07T01:12:49.343Z,100845.63
2018-05-07T01:15:19.280Z,100844.58
2018-05-07T01:17:49.369Z,100842.14
2018-05-07T01:20:19.316Z,100843.52
2018-05-07T01:22:49.463Z,100841.64
2018-05-07T01:25:18.665Z,100836.81
2018-05-07T01:27:47.823Z,100838.19
2018-05-07T01:30:17.080Z,100834.53
2018-05-07T01:32:47.262Z,100837.63
2018-05-07T01:35:16.458Z,100843.70
2018-05-07T01:37:45.620Z,100839.69
2018-05-07T01:40:14.802Z,100846.44
2018-05-07T01:42:43.942Z,100838.27
2018-05-07T01:45:13.084Z,100843.37
2018-05-07T01:47:43.043Z,100838.45
2018-05-07T01:50:12.198Z,100843.30
2018-05-07T01:52:42.281Z,100838.11
2018-05-07T01:55:11.433Z,100839.25
2018-05-07T01:57:42.570Z,100836.34
2018-05-07T02:00:12.484Z,100833.08
2018-05-07T02:02:41.673Z,100834.61
2018-05-07T02:05:10.817Z,100827.50
2018-05-07T02:07:40.929Z,100816.62
2018-05-07T02:10:10.082Z,100813.63
2018-05-07T02:12:39.261Z,100819.81
2018-05-07T02:15:08.429Z,100819.01
2018-05-07T02:17:38.535Z,100825.23
2018-05-07T02:20:08.470Z,100822.64
2018-05-07T02:22:38.501Z,100824.39
2018-05-07T02:25:07.682Z,100827.53
2018-05-07T02:27:36.857Z,100825.80
2018-05-07T02:30:06.819Z,100828.91
2018-05-07T02:32:36.098Z,100821.64
2018-05-07T02:35:06.206Z,100832.88
2018-05-07T02:37:35.368Z,100827.14
2018-05-07T02:40:05.323Z,100821.84
2018-05-07T02:42:35.119Z,100832.73
2018-05-07T02:45:04.405Z,100820.25
2018-05-07T02:47:34.357Z,100827.80
2018-05-07T02:50:03.500Z,100827.52
2018-05-07T02:52:32.696Z,100819.47
2018-05-07T02:55:01.859Z,100824.74
2018-05-07T02:57:31.051Z,100820.80
2018-05-07T03:00:00.223Z,100821.17
2018-05-07T03:02:29.397Z,100821.62
2018-05-07T03:05:00.360Z,100824.48
2018-05-07T03:07:29.540Z,100826.12
2018-05-07T03:09:59.492Z,100822.80
2018-05-07T03:12:28.654Z,100821.95
2018-05-07T03:14:59.422Z,100813.88
2018-05-07T03:17:28.593Z,100816.39
2018-05-07T03:19:59.226Z,100818.19
2018-05-07T03:22:29.134Z,100820.16
2018-05-07T03:24:58.794Z,100815.58
2018-05-07T03:27:27.953Z,100815.00
2018-05-07T03:30:00.152Z,100810.31
2018-05-07T03:32:30.080Z,100809.53
2018-05-07T03:34:59.245Z,100807.47
2018-05-07T03:37:28.406Z,100812.55
2018-05-07T03:39:59.586Z,100810.30
2018-05-07T03:42:29.554Z,100819.92
2018-05-07T03:44:58.704Z,100818.99
2018-05-07T03:47:27.918Z,100814.95
2018-05-07T03:49:57.056Z,100816.25
2018-05-07T03:52:26.268Z,100820.16
2018-05-07T03:54:57.133Z,100816.06
2018-05-07T03:57:26.280Z,100816.34
2018-05-07T03:59:55.441Z,100815.65
2018-05-07T04:02:24.598Z,100807.91
2018-05-07T04:04:54.505Z,100806.75
2018-05-07T04:07:24.560Z,100803.88
2018-05-07T04:09:55.788Z,100806.20
2018-05-07T04:12:24.984Z,100810.17
2018-05-07T04:14:54.167Z,100804.09
2018-05-07T04:17:41.818Z,100809.78
2018-05-07T04:20:28.734Z,100795.49
2018-05-07T04:23:16.293Z,100798.97
2018-05-07T04:25:45.496Z,100801.41
2018-05-07T04:28:14.665Z,100803.34
2018-05-07T04:30:43.827Z,100802.19
2018-05-07T04:33:13.031Z,100804.84
2018-05-07T04:35:42.946Z,100803.70
2018-05-07T04:38:12.866Z,100805.88
2018-05-07T04:40:42.798Z,100806.65
2018-05-07T04:43:12.010Z,100813.37
2018-05-07T04:45:42.842Z,100809.33
2018-05-07T04:48:11.985Z,100813.92
2018-05-07T04:50:41.150Z,100813.44
2018-05-07T04:53:10.290Z,100823.65
2018-05-07T04:55:40.231Z,100821.56
2018-05-07T04:58:09.885Z,100828.19
2018-05-07T05:00:39.051Z,100830.09
2018-05-07T05:15:58.853Z,100841.88
2018-05-07T05:18:27.995Z,100845.12
2018-05-07T05:20:57.150Z,100839.33
2018-05-07T05:23:26.292Z,100844.55
2018-05-07T05:25:56.233Z,100838.59
2018-05-07T05:28:26.153Z,100848.66
2018-05-07T05:30:56.089Z,100856.94
2018-05-07T05:33:25.257Z,100850.50
2018-05-07T05:35:55.176Z,100852.50
2018-05-07T05:38:25.106Z,100846.97
2018-05-07T05:40:54.257Z,100850.63
2018-05-07T05:43:24.183Z,100846.41
2018-05-07T05:45:53.306Z,100851.52
2018-05-07T05:48:23.237Z,100849.52
2018-05-07T05:50:52.371Z,100846.17
2018-05-07T05:53:22.290Z,100847.67
2018-05-07T05:55:51.460Z,100849.35
2018-05-07T05:58:21.602Z,100848.99
2018-05-07T06:00:50.745Z,100844.79
2018-05-07T06:03:19.924Z,100845.39
2018-05-07T06:05:49.081Z,100846.56
2018-05-07T06:08:18.204Z,100845.75
2018-05-07T06:10:47.352Z,100845.80
2018-05-07T06:13:16.490Z,100846.02
2018-05-07T06:15:45.655Z,100842.28
2018-05-07T06:18:14.875Z,100836.63
2018-05-07T06:20:44.758Z,100838.15
2018-05-07T06:23:13.891Z,100838.16
2018-05-07T06:25:43.065Z,100840.86
2018-05-07T06:28:12.225Z,100848.48
2018-05-07T06:30:42.142Z,100839.29
2018-05-07T06:33:12.067Z,100838.13
2018-05-07T06:35:41.217Z,100839.91
2018-05-07T06:38:10.363Z,100838.22
2018-05-07T06:40:39.622Z,100839.34
2018-05-07T06:43:09.585Z,100839.53
2018-05-07T06:45:39.082Z,100837.71
2018-05-07T06:48:08.202Z,100827.00
2018-05-07T06:50:38.137Z,100831.83
2018-05-07T06:53:07.274Z,100834.70
2018-05-07T06:55:36.433Z,100833.30
2018-05-07T06:58:06.342Z,100834.20
2018-05-07T07:00:35.494Z,100835.75
2018-05-07T07:03:04.656Z,100826.66
2018-05-07T07:05:34.694Z,100830.24
2018-05-07T07:08:04.735Z,100825.09
2018-05-07T07:10:34.046Z,100824.52
2018-05-07T07:13:03.217Z,100825.88
2018-05-07T07:15:32.874Z,100830.06
2018-05-07T07:18:02.012Z,100827.05
2018-05-07T07:20:31.930Z,100821.81
2018-05-07T07:23:01.126Z,100823.04
2018-05-07T07:25:31.088Z,100825.49
2018-05-07T07:28:00.306Z,100824.32
2018-05-07T07:30:29.454Z,100823.09
2018-05-07T07:32:59.542Z,100815.95
2018-05-07T07:35:29.448Z,100812.80
2018-05-07T07:37:59.512Z,100819.15
2018-05-07T07:40:28.691Z,100816.66
2018-05-07T07:42:59.839Z,100820.20
2018-05-07T07:45:28.974Z,100816.98
2018-05-07T07:47:58.143Z,100818.35
2018-05-07T07:50:27.301Z,100812.71
2018-05-07T07:52:58.145Z,100811.84
2018-05-07T07:55:28.043Z,100811.61
2018-05-07T07:57:57.989Z,100816.37
2018-05-07T08:00:27.125Z,100813.14
2018-05-07T08:02:56.283Z,100817.27
2018-05-07T08:05:25.439Z,100808.92
2018-05-07T08:07:54.671Z,100807.45
2018-05-07T08:10:24.603Z,100812.28
2018-05-07T08:12:53.779Z,100807.05
2018-05-07T08:15:23.753Z,100809.08
2018-05-07T08:17:52.889Z,100801.52
2018-05-07T08:20:22.803Z,100805.35
2018-05-07T08:22:52.760Z,100795.24
2018-05-07T08:25:21.911Z,100796.69
2018-05-07T08:27:51.920Z,100800.09
2018-05-07T08:30:21.078Z,100801.56
2018-05-07T08:32:50.222Z,100795.53
2018-05-07T08:35:20.148Z,100789.88
2018-05-07T08:37:49.311Z,100783.22
2018-05-07T08:40:18.512Z,100791.82
2018-05-07T08:42:47.638Z,100776.45
2018-05-07T08:45:17.558Z,100778.70
2018-05-07T08:47:47.472Z,100779.84
2018-05-07T08:50:17.414Z,100775.53
2018-05-07T08:52:47.323Z,100775.29
2018-05-07T08:55:16.497Z,100779.82
2018-05-07T08:57:46.436Z,100780.20
2018-05-07T09:00:15.614Z,100784.53
2018-05-07T09:02:44.870Z,100783.13
2018-05-07T09:05:14.018Z,100783.89
2018-05-07T09:07:43.170Z,100781.42
2018-05-07T09:10:12.336Z,100777.56
2018-05-07T09:12:41.489Z,100775.27
2018-05-07T09:15:11.401Z,100770.95
2018-05-07T09:17:41.325Z,100769.36
2018-05-07T09:20:11.234Z,100764.41
2018-05-07T09:22:40.389Z,100764.50
2018-05-07T09:25:09.541Z,100757.45
2018-05-07T09:27:38.681Z,100760.28
2018-05-07T09:30:07.839Z,100757.81
2018-05-07T09:32:37.749Z,100753.33
2018-05-07T09:35:06.910Z,100751.11
2018-05-07T09:37:36.055Z,100748.77
2018-05-07T09:40:05.209Z,100757.66
2018-05-07T09:42:34.341Z,100745.91
2018-05-07T09:45:03.528Z,100745.66
2018-05-07T09:47:33.469Z,100744.38
2018-05-07T09:50:03.569Z,100747.94
2018-05-07T09:52:32.748Z,100737.94
2018-05-07T09:55:02.661Z,100743.50
2018-05-07T09:57:31.847Z,100730.47
2018-05-07T10:00:02.167Z,100732.16
2018-05-07T10:02:31.375Z,100721.34
2018-05-07T10:05:00.498Z,100722.34
2018-05-07T10:07:29.666Z,100717.11
2018-05-07T10:09:59.862Z,100718.73
2018-05-07T10:12:29.006Z,100713.56
2018-05-07T10:15:00.267Z,100711.33
2018-05-07T10:17:29.421Z,100707.70
2018-05-07T10:19:59.828Z,100712.34
2018-05-07T10:22:29.165Z,100702.73
2018-05-07T10:25:00.352Z,100707.28
2018-05-07T10:27:29.537Z,100696.42
2018-05-07T10:29:59.928Z,100696.05
2018-05-07T10:32:30.002Z,100693.50
2018-05-07T10:34:59.929Z,100691.19
2018-05-07T10:37:29.090Z,100684.27
2018-05-07T10:39:58.267Z,100681.32
2018-05-07T10:42:28.209Z,100680.53
2018-05-07T10:44:58.370Z,100675.56
2018-05-07T10:47:27.517Z,100666.92
2018-05-07T10:49:57.421Z,100669.58
2018-05-07T10:52:27.341Z,100663.69
2018-05-07T10:54:57.241Z,100661.30
2018-05-07T10:57:27.167Z,100664.58
2018-05-07T10:59:57.081Z,100655.73
2018-05-07T11:02:27.326Z,100645.32
2018-05-07T11:04:56.485Z,100629.30
2018-05-07T11:07:25.740Z,100629.80
2018-05-07T11:09:54.816Z,100640.67
2018-05-07T11:12:23.964Z,100630.20
2018-05-07T11:14:53.107Z,100631.98
2018-05-07T11:17:22.315Z,100633.77
2018-05-07T11:19:51.578Z,100627.19
2018-05-07T11:22:21.459Z,100624.41
2018-05-07T11:24:51.566Z,100628.48
2018-05-07T11:27:21.062Z,100618.17
2018-05-07T11:29:50.229Z,100619.08
2018-05-07T11:32:20.329Z,100602.83
2018-05-07T11:34:50.275Z,100607.07
2018-05-07T11:37:19.405Z,100610.18
2018-05-07T11:39:48.549Z,100602.66
2018-05-07T11:42:17.711Z,100601.33
2018-05-07T11:44:46.873Z,100592.28
2018-05-07T11:47:16.049Z,100595.87
2018-05-07T11:49:45.225Z,100586.37
2018-05-07T11:52:15.145Z,100584.94
2018-05-07T11:54:44.273Z,100584.72
2018-05-07T11:57:13.432Z,100584.73
2018-05-07T11:59:42.600Z,100584.48
2018-05-07T12:02:12.537Z,100580.66
2018-05-07T12:04:41.690Z,100574.86
2018-05-07T12:07:10.850Z,100564.11
2018-05-07T12:09:40.167Z,100569.31
2018-05-07T12:12:09.370Z,100564.52
2018-05-07T12:14:38.545Z,100564.88
2018-05-07T12:17:07.707Z,100546.02
2018-05-07T12:19:37.130Z,100544.50
2018-05-07T12:22:06.301Z,100541.59
2018-05-07T12:24:36.229Z,100544.20
2018-05-07T12:27:05.763Z,100542.77
2018-05-07T12:29:34.904Z,100540.36
2018-05-07T12:32:05.025Z,100536.01
2018-05-07T12:34:34.165Z,100529.89
2018-05-07T12:37:03.316Z,100528.54
2018-05-07T12:39:35.161Z,100526.32
2018-05-07T12:42:04.329Z,100515.78
2018-05-07T12:44:33.572Z,100522.00
2018-05-07T12:47:02.736Z,100516.09
2018-05-07T12:49:31.888Z,100507.95
2018-05-07T12:52:01.082Z,100503.02
2018-05-07T12:54:31.012Z,100508.80
2018-05-07T12:57:00.459Z,100499.64
2018-05-07T12:59:29.865Z,100506.83
2018-05-07T13:02:00.228Z,100507.20
2018-05-07T13:04:29.405Z,100511.00
2018-05-07T13:06:58.621Z,100488.52
2018-05-07T13:09:28.547Z,100490.45
2018-05-07T13:11:59.320Z,100479.70
2018-05-07T13:14:28.967Z,100483.05
2018-05-07T13:16:58.133Z,100478.58
2018-05-07T13:19:27.318Z,100476.64
2018-05-07T13:21:56.466Z,100467.56
2018-05-07T13:24:26.387Z,100474.55
2018-05-07T13:26:56.330Z,100469.89
2018-05-07T13:29:25.483Z,100462.86
2018-05-07T13:31:54.654Z,100456.81
2018-05-07T13:34:23.792Z,100444.92
2018-05-07T13:36:53.791Z,100442.66
2018-05-07T13:39:23.820Z,100447.28
2018-05-07T13:41:53.769Z,100437.36
2018-05-07T13:44:22.929Z,100432.74
2018-05-07T13:46:52.087Z,100434.23
2018-05-07T13:49:21.249Z,100427.72
2018-05-07T13:51:50.402Z,100431.99
2018-05-07T13:54:19.576Z,100426.33
2018-05-07T13:56:49.540Z,100422.81
2018-05-07T13:59:19.830Z,100425.58
2018-05-07T14:01:48.963Z,100413.70
2018-05-07T14:04:18.884Z,100411.99
2018-05-07T14:06:48.830Z,100413.95
2018-05-07T14:09:18.730Z,100407.20
2018-05-07T14:11:47.900Z,100398.57
2018-05-07T14:14:17.827Z,100393.92
2018-05-07T14:16:48.006Z,100401.88
2018-05-07T14:19:17.889Z,100409.02
2018-05-07T14:21:47.035Z,100401.99
2018-05-07T14:24:17.715Z,100403.36
2018-05-07T14:26:46.872Z,100396.95
2018-05-07T14:29:16.799Z,100398.37
2018-05-07T14:31:46.739Z,100388.52
2018-05-07T14:34:16.221Z,100380.42
2018-05-07T14:36:46.162Z,100380.88
2018-05-07T14:39:16.107Z,100368.24
2018-05-07T14:41:45.278Z,100363.38
2018-05-07T14:44:15.061Z,100371.91
2018-05-07T14:46:44.985Z,100371.20
2018-05-07T14:49:14.122Z,100370.48
2018-05-07T14:51:43.469Z,100360.62
2018-05-07T14:54:14.382Z,100366.81
2018-05-07T14:56:43.557Z,100352.02
2018-05-07T14:59:12.734Z,100344.67
2018-05-07T15:01:41.915Z,100355.16
2018-05-07T15:04:12.059Z,100361.63
2018-05-07T15:06:41.240Z,100361.98
2018-05-07T15:09:10.442Z,100357.14
2018-05-07T15:11:39.603Z,100348.09
2018-05-07T15:14:22.353Z,100352.19
2018-05-07T15:16:51.573Z,100345.61
2018-05-07T15:19:20.725Z,100348.91
2018-05-07T15:21:50.652Z,100350.06
2018-05-07T15:24:19.829Z,100336.09
2018-05-07T15:26:50.476Z,100333.23
2018-05-07T15:29:21.558Z,100334.20
2018-05-07T15:31:50.630Z,100330.00
2018-05-07T15:34:19.780Z,100327.26
2018-05-07T15:36:48.976Z,100330.41
2018-05-07T15:39:18.122Z,100324.25
2018-05-07T15:41:47.334Z,100322.13
2018-05-07T15:44:16.595Z,100318.64
2018-05-07T15:46:46.529Z,100308.62
2018-05-07T15:49:15.705Z,100305.06
2018-05-07T15:51:45.922Z,100300.03
2018-05-07T15:54:15.129Z,100296.16
2018-05-07T15:56:45.099Z,100291.13
2018-05-07T15:59:14.285Z,100292.72
2018-05-07T16:01:43.484Z,100293.66
2018-05-07T16:04:12.654Z,100286.45
2018-05-07T16:06:42.810Z,100291.79
2018-05-07T16:09:11.985Z,100284.41
2018-05-07T16:11:42.118Z,100279.06
2018-05-07T16:14:11.295Z,100286.93
2018-05-07T16:16:41.460Z,100277.99
2018-05-07T16:19:10.615Z,100278.80
2018-05-07T16:21:40.678Z,100272.15
2018-05-07T16:24:09.847Z,100279.94
2018-05-07T16:26:39.091Z,100275.58
2018-05-07T16:29:08.234Z,100270.38
2018-05-07T16:31:37.414Z,100263.05
2018-05-07T16:34:06.570Z,100268.13
2018-05-07T16:36:35.760Z,100268.69
2018-05-07T16:39:05.841Z,100272.55
2018-05-07T16:41:35.244Z,100275.02
2018-05-07T16:44:04.224Z,100275.66
2018-05-07T16:46:33.426Z,100279.16
2018-05-07T16:49:02.649Z,100274.45
2018-05-07T16:51:32.814Z,100265.19
2018-05-07T16:54:01.986Z,100273.59
2018-05-07T16:56:31.180Z,100268.75
2018-05-07T16:59:04.183Z,100265.69
2018-05-07T17:01:33.331Z,100263.25
2018-05-07T17:04:02.478Z,100265.48
2018-05-07T17:06:33.155Z,100258.31
2018-05-07T17:09:02.310Z,100257.53
2018-05-07T17:11:31.462Z,100252.88
2018-05-07T17:14:01.334Z,100257.91
2018-05-07T17:16:30.487Z,100253.50
2018-05-07T17:18:59.663Z,100256.66
2018-05-07T17:21:28.808Z,100253.05
2018-05-07T17:23:59.541Z,100255.83
2018-05-07T17:26:29.718Z,100265.16
2018-05-07T17:28:58.886Z,100262.12
2018-05-07T17:31:29.826Z,100254.83
2018-05-07T17:33:59.981Z,100256.30
2018-05-07T17:36:28.975Z,100257.02
2018-05-07T17:38:58.162Z,100267.66
2018-05-07T17:41:27.415Z,100260.76
2018-05-07T17:43:56.572Z,100263.31
2018-05-07T17:46:43.522Z,100261.56
2018-05-07T17:49:13.857Z,100266.94
2018-05-07T17:51:42.913Z,100260.30
2018-05-07T17:54:12.065Z,100271.52
2018-05-07T17:56:42.044Z,100267.06
2018-05-07T17:59:11.223Z,100263.44
2018-05-07T18:01:40.369Z,100263.59
2018-05-07T18:04:10.287Z,100270.77
2018-05-07T18:06:40.381Z,100272.30
2018-05-07T18:09:09.629Z,100269.55
2018-05-07T18:11:38.776Z,100270.77
2018-05-07T18:14:07.928Z,100267.31
2018-05-07T18:16:37.152Z,100269.70
2018-05-07T18:19:06.379Z,100267.83
2018-05-07T18:21:35.518Z,100268.16
2018-05-07T18:24:04.713Z,100269.55
2018-05-07T18:26:33.987Z,100268.31
2018-05-07T18:29:03.144Z,100269.67
2018-05-07T18:31:32.382Z,100268.80
2018-05-07T18:34:01.615Z,100273.03
2018-05-07T18:36:31.032Z,100276.78
2018-05-07T18:38:59.996Z,100269.05
2018-05-07T18:41:29.166Z,100266.31
2018-05-07T18:43:58.317Z,100271.66
2018-05-07T18:46:27.542Z,100274.67
2018-05-07T18:48:58.414Z,100276.39
2018-05-07T18:51:28.353Z,100273.06
2018-05-07T18:53:57.494Z,100282.59
2018-05-07T18:56:27.074Z,100284.25
2018-05-07T18:58:57.183Z,100287.02
2018-05-07T19:01:26.382Z,100285.61
2018-05-07T19:03:55.557Z,100288.96
2018-05-07T19:06:24.731Z,100298.06
2018-05-07T19:08:53.901Z,100290.98
2018-05-07T19:11:23.041Z,100297.31
2018-05-07T19:13:52.982Z,100295.85
2018-05-07T19:16:22.163Z,100297.50
2018-05-07T19:18:52.132Z,100299.20
2018-05-07T19:21:21.319Z,100293.63
2018-05-07T19:23:50.513Z,100294.65
2018-05-07T19:26:19.706Z,100292.50
2018-05-07T19:28:48.890Z,100293.70
2018-05-07T19:31:18.089Z,100299.48
2018-05-07T19:33:47.248Z,100296.27
2018-05-07T19:36:16.431Z,100299.80
2018-05-07T19:38:45.576Z,100297.66
2018-05-07T19:41:16.733Z,100293.20
2018-05-07T19:43:45.891Z,100305.31
2018-05-07T19:46:15.815Z,100301.40
2018-05-07T19:48:46.697Z,100297.59
2018-05-07T19:51:15.855Z,100302.39
2018-05-07T19:53:45.056Z,100299.25
2018-05-07T19:56:14.243Z,100292.61
2018-05-07T19:58:44.161Z,100297.91
2018-05-07T20:01:13.357Z,100290.85
2018-05-07T20:03:42.536Z,100293.96
2018-05-07T20:06:12.442Z,100292.48
2018-05-07T20:08:42.413Z,100285.36
2018-05-07T20:11:11.585Z,100288.97
2018-05-07T20:13:41.781Z,100286.50
2018-05-07T20:16:11.719Z,100283.36
2018-05-07T20:18:41.647Z,100290.32
2018-05-07T20:21:10.789Z,100287.75
2018-05-07T20:23:39.962Z,100300.98
2018-05-07T20:26:09.110Z,100298.23
2018-05-07T20:28:39.047Z,100303.27
2018-05-07T20:31:08.648Z,100310.34
2018-05-07T20:33:37.859Z,100313.92
2018-05-07T20:36:07.072Z,100312.69
2018-05-07T20:38:36.344Z,100310.23
2018-05-07T20:41:06.272Z,100308.84
2018-05-07T20:43:35.495Z,100305.48
2018-05-07T20:46:04.687Z,100303.78
2018-05-07T20:48:33.852Z,100301.05
2018-05-07T20:51:03.762Z,100296.50
2018-05-07T20:53:33.672Z,100299.08
2018-05-07T20:56:05.605Z,100298.33
2018-05-07T20:58:35.519Z,100304.33
2018-05-07T21:01:04.660Z,100304.78
2018-05-07T21:03:34.180Z,100302.09
2018-05-07T21:06:03.369Z,100296.17
2018-05-07T21:08:32.567Z,100294.38
2018-05-07T21:11:02.154Z,100301.56
2018-05-07T21:13:32.095Z,100296.31
2018-05-07T21:16:02.231Z,100293.79
2018-05-07T21:18:31.380Z,100283.28
2018-05-07T21:21:02.542Z,100297.56
2018-05-07T21:23:31.767Z,100297.82
2018-05-07T21:26:02.171Z,100289.60
2018-05-07T21:28:31.348Z,100290.84
2018-05-07T21:31:02.522Z,100287.70
2018-05-07T21:33:31.706Z,100283.47
2018-05-07T21:36:02.102Z,100286.70
2018-05-07T21:38:31.272Z,100282.33
2018-05-07T21:41:00.423Z,100281.63
2018-05-07T21:43:31.004Z,100278.40
2018-05-07T21:46:00.117Z,100273.50
2018-05-07T21:48:29.265Z,100280.59
2018-05-07T21:50:59.196Z,100278.05
2018-05-07T21:53:28.433Z,100286.66
2018-05-07T21:55:58.257Z,100280.80
2018-05-07T21:58:28.198Z,100279.75
2018-05-07T22:00:58.525Z,100277.42
2018-05-07T22:03:28.000Z,100272.08
2018-05-07T22:05:57.165Z,100276.08
2018-05-07T22:08:26.338Z,100277.27
2018-05-07T22:10:56.418Z,100270.55
2018-05-07T22:13:26.334Z,100273.28
2018-05-07T22:15:55.484Z,100275.31
2018-05-07T22:18:24.656Z,100270.24
2018-05-07T22:20:53.794Z,100271.60
2018-05-07T22:23:22.989Z,100270.83
2018-05-07T22:25:52.180Z,100271.47
2018-05-07T22:28:21.326Z,100268.55
2018-05-07T22:30:50.517Z,100269.28
2018-05-07T22:33:20.427Z,100273.03
2018-05-07T22:35:50.349Z,100268.23
2018-05-07T22:38:20.291Z,100266.55
2018-05-07T22:40:49.468Z,100276.33
2018-05-07T22:43:19.861Z,100264.73
2018-05-07T22:45:50.235Z,100267.86
2018-05-07T22:48:19.447Z,100270.26
2018-05-07T22:50:48.592Z,100259.30
2018-05-07T22:53:18.531Z,100268.83
2018-05-07T22:55:48.273Z,100260.94
2018-05-07T22:58:18.554Z,100258.96
2018-05-07T23:00:48.925Z,100261.61
2018-05-07T23:03:18.073Z,100258.00
2018-05-07T23:05:47.998Z,100255.83
2018-05-07T23:08:17.913Z,100261.03
2018-05-07T23:10:47.812Z,100258.20
2018-05-07T23:13:17.744Z,100256.59
2018-05-07T23:15:47.646Z,100250.70
2018-05-07T23:18:17.561Z,100249.78
2018-05-07T23:20:47.552Z,100247.07
2018-05-07T23:23:16.718Z,100250.77
2018-05-07T23:25:45.859Z,100252.05
2018-05-07T23:28:15.015Z,100247.46
2018-05-07T23:30:44.188Z,100245.11
2018-05-07T23:33:13.367Z,100241.67
2018-05-07T23:35:43.269Z,100248.13
2018-05-07T23:38:13.210Z,100247.89
2018-05-07T23:40:43.114Z,100242.03
2018-05-07T23:43:13.024Z,100237.55
2018-05-07T23:45:43.009Z,100236.78
2018-05-07T23:48:13.101Z,100236.42
2018-05-07T23:50:43.025Z,100232.49
2018-05-07T23:53:13.130Z,100239.31
2018-05-07T23:55:42.304Z,100235.89
2018-05-07T23:58:11.457Z,100232.70
